createdAt,value
2019-02-17T15:04:08.737Z,18.75
2019-02-17T15:06:40.827Z,19.97
2019-02-17T15:09:14.304Z,18.23
2019-02-17T15:11:48.332Z,19.40
2019-02-17T15:14:21.377Z,18.90
2019-02-17T15:16:54.439Z,19.33
2019-02-17T15:19:28.015Z,18.00
2019-02-17T15:22:01.491Z,18.20
2019-02-17T15:24:34.481Z,20.15
2019-02-17T15:27:07.224Z,19.07
2019-02-17T15:29:40.546Z,20.30
2019-02-17T15:32:14.166Z,18.80
2019-02-17T15:34:48.203Z,18.35
2019-02-17T15:37:21.601Z,17.75
2019-02-17T15:39:55.377Z,18.07
2019-02-17T15:42:29.003Z,18.20
2019-02-17T15:45:03.346Z,18.45
2019-02-17T15:47:36.668Z,19.02
2019-02-17T15:50:09.722Z,19.35
2019-02-17T15:52:43.229Z,20.32
2019-02-17T15:55:16.736Z,19.02
2019-02-17T15:57:50.667Z,18.07
2019-02-17T16:00:23.751Z,18.50
2019-02-17T16:02:57.118Z,18.85
2019-02-17T16:05:30.604Z,18.60
2019-02-17T16:08:04.853Z,19.02
2019-02-17T16:10:38.741Z,17.07
2019-02-17T16:13:12.134Z,17.80
2019-02-17T16:15:46.144Z,18.87
2019-02-17T16:18:19.555Z,19.45
2019-02-17T16:20:52.328Z,17.20
2019-02-17T16:23:25.500Z,19.42
2019-02-17T16:25:59.021Z,18.67
2019-02-17T16:28:32.447Z,18.95
2019-02-17T16:31:05.257Z,18.70
2019-02-17T16:33:38.198Z,19.20
2019-02-17T16:36:10.794Z,18.37
2019-02-17T16:38:44.164Z,19.00
2019-02-17T16:41:17.317Z,19.50
2019-02-17T16:43:50.623Z,17.85
2019-02-17T16:46:24.154Z,18.55
2019-02-17T16:48:57.239Z,19.40
2019-02-17T16:51:30.234Z,20.12
2019-02-17T16:54:03.222Z,18.05
2019-02-17T16:56:36.949Z,18.95
2019-02-17T16:59:10.533Z,18.85
2019-02-17T17:01:43.486Z,17.65
2019-02-17T17:04:16.534Z,17.70
2019-02-17T17:06:50.067Z,18.80
2019-02-17T17:09:23.227Z,17.15
2019-02-17T17:11:56.398Z,17.48
2019-02-17T17:14:30.091Z,18.60
2019-02-17T17:17:02.890Z,17.10
2019-02-17T17:19:37.480Z,19.30
2019-02-17T17:22:10.989Z,17.45
2019-02-17T17:24:44.545Z,18.95
2019-02-17T17:27:19.102Z,17.92
2019-02-17T17:29:52.608Z,17.85
2019-02-17T17:32:26.130Z,17.40
2019-02-17T17:34:59.476Z,18.32
2019-02-17T17:37:32.478Z,18.60
2019-02-17T17:40:08.550Z,16.95
2019-02-17T17:42:42.057Z,16.60
2019-02-17T17:45:15.970Z,17.45
2019-02-17T17:47:49.773Z,18.87
2019-02-17T17:50:22.452Z,17.82
2019-02-17T17:52:55.530Z,18.32
2019-02-17T17:55:30.150Z,17.17
2019-02-17T17:58:04.298Z,17.98
2019-02-17T18:00:38.189Z,17.98
2019-02-17T18:03:11.684Z,17.25
2019-02-17T18:05:44.816Z,15.30
2019-02-17T18:08:18.456Z,16.73
2019-02-17T18:10:52.054Z,16.07
2019-02-17T18:13:24.437Z,15.72
2019-02-17T18:15:58.428Z,15.00
2019-02-17T18:18:31.136Z,15.15
2019-02-17T18:21:04.431Z,15.95
2019-02-17T18:23:37.923Z,18.25
2019-02-17T18:26:11.470Z,15.80
2019-02-17T18:28:44.952Z,15.20
2019-02-17T18:31:18.146Z,15.65
2019-02-17T18:33:50.962Z,15.53
2019-02-17T18:36:24.122Z,14.15
2019-02-17T18:38:56.919Z,14.80
2019-02-17T18:41:30.089Z,15.85
2019-02-17T18:44:02.684Z,15.65
2019-02-17T18:46:36.325Z,15.55
2019-02-17T18:49:09.969Z,15.50
2019-02-17T18:51:43.488Z,14.45
2019-02-17T18:54:16.959Z,14.75
2019-02-17T18:56:50.098Z,14.58
2019-02-17T18:59:24.201Z,15.23
2019-02-17T19:01:58.333Z,14.87
2019-02-17T19:04:31.485Z,14.65
2019-02-17T19:07:04.702Z,12.60
2019-02-17T19:09:39.067Z,14.47
2019-02-17T19:12:11.464Z,14.65
2019-02-17T19:14:44.950Z,13.80
2019-02-17T19:17:18.366Z,14.45
2019-02-17T19:19:51.885Z,13.83
2019-02-17T19:22:25.351Z,13.90
2019-02-17T19:24:58.879Z,14.30
2019-02-17T19:27:31.621Z,14.10
2019-02-17T19:30:04.888Z,14.43
2019-02-17T19:32:37.928Z,15.63
2019-02-17T19:35:11.534Z,14.10
2019-02-17T19:37:46.520Z,14.30
2019-02-17T19:40:20.133Z,14.90
2019-02-17T19:42:53.386Z,14.65
2019-02-17T19:45:26.540Z,13.85
2019-02-17T19:48:00.341Z,15.15
2019-02-17T19:50:34.216Z,13.25
2019-02-17T19:53:08.690Z,14.87
2019-02-17T19:55:41.797Z,14.93
2019-02-17T19:58:14.484Z,14.87
2019-02-17T20:00:47.951Z,14.10
2019-02-17T20:03:29.226Z,14.87
2019-02-17T20:06:03.480Z,13.72
2019-02-17T20:08:36.659Z,13.45
2019-02-17T20:11:10.408Z,12.85
2019-02-17T20:13:44.178Z,14.18
2019-02-17T20:16:17.969Z,13.65
2019-02-17T20:18:51.175Z,13.62
2019-02-17T20:21:25.156Z,13.55
2019-02-17T20:23:58.522Z,13.90
2019-02-17T20:26:32.030Z,12.20
2019-02-17T20:29:05.150Z,13.68
2019-02-17T20:31:38.740Z,13.22
2019-02-17T20:34:14.573Z,15.03
2019-02-17T20:36:48.063Z,14.90
2019-02-17T20:39:21.279Z,14.55
2019-02-17T20:41:54.691Z,14.20
2019-02-17T20:44:27.877Z,13.03
2019-02-17T20:47:00.967Z,12.98
2019-02-17T20:49:34.501Z,14.23
2019-02-17T20:52:07.986Z,14.05
2019-02-17T20:54:41.496Z,13.03
2019-02-17T20:57:15.610Z,13.08
2019-02-17T20:59:48.354Z,13.10
2019-02-17T21:02:21.790Z,12.63
2019-02-17T21:04:55.321Z,12.90
2019-02-17T21:07:28.356Z,13.60
2019-02-17T21:10:01.568Z,13.98
2019-02-17T21:12:34.863Z,14.50
2019-02-17T21:15:09.294Z,13.13
2019-02-17T21:17:41.953Z,12.55
2019-02-17T21:20:16.142Z,13.50
2019-02-17T21:22:49.593Z,12.07
2019-02-17T21:25:23.042Z,12.07
2019-02-17T21:27:55.745Z,12.88
2019-02-17T21:30:29.119Z,13.90
2019-02-17T21:33:01.868Z,13.50
2019-02-17T21:35:35.215Z,13.80
2019-02-17T21:38:07.975Z,13.22
2019-02-17T21:40:41.092Z,14.07
2019-02-17T21:43:14.687Z,12.35
2019-02-17T21:45:48.247Z,12.88
2019-02-17T21:48:21.474Z,13.50
2019-02-17T21:50:55.332Z,12.73
2019-02-17T21:53:28.793Z,13.50
2019-02-17T21:56:02.067Z,12.47
2019-02-17T21:58:35.531Z,12.78
2019-02-17T22:01:08.558Z,14.07
2019-02-17T22:03:42.184Z,12.70
2019-02-17T22:06:15.316Z,13.22
2019-02-17T22:08:49.054Z,12.43
2019-02-17T22:11:21.746Z,12.07
2019-02-17T22:13:54.979Z,12.23
2019-02-17T22:16:28.533Z,11.73
2019-02-17T22:19:02.094Z,12.15
2019-02-17T22:21:34.298Z,10.98
2019-02-17T22:24:07.099Z,11.88
2019-02-17T22:26:40.565Z,10.60
2019-02-17T22:29:13.707Z,11.48
2019-02-17T22:31:46.656Z,11.75
2019-02-17T22:34:20.121Z,11.35
2019-02-17T22:36:54.051Z,11.70
2019-02-17T22:39:27.450Z,11.35
2019-02-17T22:42:00.451Z,10.98
2019-02-17T22:44:35.017Z,11.65
2019-02-17T22:47:08.489Z,10.78
2019-02-17T22:49:41.968Z,10.23
2019-02-17T22:52:14.818Z,10.35
2019-02-17T22:54:48.239Z,10.15
2019-02-17T22:57:21.341Z,10.48
2019-02-17T22:59:54.554Z,9.80
2019-02-17T23:02:28.571Z,10.72
2019-02-17T23:05:01.924Z,10.93
2019-02-17T23:07:35.143Z,11.00
2019-02-17T23:10:09.173Z,11.30
2019-02-17T23:12:42.333Z,10.32
2019-02-17T23:15:14.733Z,11.30
2019-02-17T23:17:47.866Z,10.50
2019-02-17T23:20:21.249Z,10.15
2019-02-17T23:22:54.203Z,9.63
2019-02-17T23:25:27.369Z,10.03
2019-02-17T23:28:00.130Z,10.63
2019-02-17T23:30:34.016Z,9.58
2019-02-17T23:33:07.352Z,11.15
2019-02-17T23:35:40.575Z,9.70
2019-02-17T23:38:14.355Z,9.75
2019-02-17T23:40:47.651Z,9.98
2019-02-17T23:43:21.122Z,10.03
2019-02-17T23:45:53.826Z,10.08
2019-02-17T23:48:26.707Z,10.82
2019-02-17T23:50:59.842Z,10.72
2019-02-17T23:53:33.098Z,11.20
2019-02-17T23:56:05.799Z,9.05
2019-02-17T23:58:38.844Z,9.93
